Brookings, SD (57006)

3:28 PM CDT on April 20, 2018 (GMT -0500)
Neighborhood | | Change Station
Active Advisory: Flood Warning

Elev 1627 ft 44.29 °N, 96.78 °W | Updated 4 minutes ago

Clear
Clear
50.7 °F
Feels Like 50.7 °F
N
1.1
Wind Variable Wind from NE
Gusts 5.0 mph

Today
High -- | Low -- °F
--% Chance of Precip.
Yesterday
High -- | Low -- °F
Precip. -- in
Pressure 30.45 in
Visibility 10.0 miles
Clouds Clear
Dew Point 38 °F
Humidity 62%
Rainfall 0.00 in
Snow Depth Not available.
6:35 AM 8:17 PM
Waxing Crescent, 27% visible
METAR KBKX 201956Z AUTO 16009KT 10SM CLR 08/02 A3037 RMK AO2 SLP312 T00830022
Pressure 30.45 in
Visibility 10.0 miles
Clouds Clear
Dew Point 38 °F
Humidity 62%
Rainfall 0.00 in
Snow Depth Not available.
6:35 AM 8:17 PM
Waxing Crescent, 27% visible
METAR KBKX 201956Z AUTO 16009KT 10SM CLR 08/02 A3037 RMK AO2 SLP312 T00830022

Get Your Daily Forecast Email!

Thanks for signing up!

Be on the lookout for a verification email in your inbox.

You'll start receiving severe weather alerts in your inbox..

×

10-Day Weather Forecast

Almanac

Astronomy

Apr. 20, 2018 Rise Set
Actual Time
Civil Twilight
Nautical Twilight
Astronomical Twilight
Moon
Length of Visible Light
Length of Day
Tomorrow will be .
, % of the Moon is Illuminated

Today's Extremes

State Highs State Lows

Community

WunderPhotos

Category 6

Welcome to Category 6. This is the collective home for Weather Underground's featured writeups by Dr. Jeff Masters (right), Bob Henson (left), Chris Burt, and other regular contributors.

Nearby

Air Quality

  Air Quality AQ Index Pollutant
Not available.

Snow Depth

Station Depth Elevation

Earthquake Activity

City Distance Mag. Time & Date
Minimum magnitude displayed is 2.5.

Coastal Water Temperatures

Place Temperature

Stations

Nearby Weather Stations

Station Location Temp. Windchill Dew Point Humidity Wind Precip. Elev Updated Type
                   

Watches & Warnings

Flood Warning
Issued: 10:55 AM CDT Apr. 20, 2018 – National Weather Service

... Flood Warning extended until further notice...
the Flood Warning continues for
the Big Sioux River near Brookings.
* From late tonight until further notice.
* At 9 am Friday the stage was 8.2 feet.
* Moderate flooding is forecast.
* Flood stage is 9.0 feet.
* Forecast... rise above flood stage by Saturday April 21 and
continue to rise to near 10.8 feet by Monday April 23.
Additional rises are possible thereafter.
* At stages near 11.0 feet... some farm outbuildings begin to flood.


Lat... Lon 4432 9692 4432 9685 4421 9675 4414 9661
          4410 9665 4420 9683